sensor_id;sensor_type;location;lat;lon;timestamp;temperature;humidity
4354;DHT22;11018;51.258;6.806;2024-02-26T00:02:15;8.50;36.80
4354;DHT22;11018;51.258;6.806;2024-02-26T00:04:41;8.60;36.70
4354;DHT22;11018;51.258;6.806;2024-02-26T00:07:07;8.60;36.50
4354;DHT22;11018;51.258;6.806;2024-02-26T00:09:32;8.70;36.30
4354;DHT22;11018;51.258;6.806;2024-02-26T00:12:01;8.50;37.10
4354;DHT22;11018;51.258;6.806;2024-02-26T00:14:29;8.40;37.30
4354;DHT22;11018;51.258;6.806;2024-02-26T00:16:55;8.30;38.10
4354;DHT22;11018;51.258;6.806;2024-02-26T00:19:20;8.30;37.40
4354;DHT22;11018;51.258;6.806;2024-02-26T00:21:46;8.40;37.60
4354;DHT22;11018;51.258;6.806;2024-02-26T00:24:11;8.50;37.30
4354;DHT22;11018;51.258;6.806;2024-02-26T00:26:37;8.40;37.40
4354;DHT22;11018;51.258;6.806;2024-02-26T00:29:02;8.30;38.00
4354;DHT22;11018;51.258;6.806;2024-02-26T00:31:28;8.20;38.20
4354;DHT22;11018;51.258;6.806;2024-02-26T00:33:54;8.50;38.90
4354;DHT22;11018;51.258;6.806;2024-02-26T00:36:19;8.10;38.80
4354;DHT22;11018;51.258;6.806;2024-02-26T00:38:45;8.10;39.00
4354;DHT22;11018;51.258;6.806;2024-02-26T00:41:16;8.30;38.30
4354;DHT22;11018;51.258;6.806;2024-02-26T00:43:42;8.40;37.30
4354;DHT22;11018;51.258;6.806;2024-02-26T00:46:08;8.50;37.10
4354;DHT22;11018;51.258;6.806;2024-02-26T00:48:33;8.40;37.50
4354;DHT22;11018;51.258;6.806;2024-02-26T00:50:59;8.50;37.80
4354;DHT22;11018;51.258;6.806;2024-02-26T00:53:24;8.50;37.80
4354;DHT22;11018;51.258;6.806;2024-02-26T00:55:50;8.40;37.50
4354;DHT22;11018;51.258;6.806;2024-02-26T00:58:16;8.40;37.60
4354;DHT22;11018;51.258;6.806;2024-02-26T01:00:42;8.30;38.20
4354;DHT22;11018;51.258;6.806;2024-02-26T01:03:07;8.40;37.70
4354;DHT22;11018;51.258;6.806;2024-02-26T01:05:33;8.20;38.40
4354;DHT22;11018;51.258;6.806;2024-02-26T01:07:59;8.40;38.10
4354;DHT22;11018;51.258;6.806;2024-02-26T01:10:24;8.40;38.00
4354;DHT22;11018;51.258;6.806;2024-02-26T01:12:50;8.40;38.30
4354;DHT22;11018;51.258;6.806;2024-02-26T01:15:15;8.50;37.60
4354;DHT22;11018;51.258;6.806;2024-02-26T01:17:41;8.60;36.90
4354;DHT22;11018;51.258;6.806;2024-02-26T01:20:07;8.70;36.50
4354;DHT22;11018;51.258;6.806;2024-02-26T01:22:34;8.40;37.30
4354;DHT22;11018;51.258;6.806;2024-02-26T01:24:59;8.20;38.10
4354;DHT22;11018;51.258;6.806;2024-02-26T01:27:25;8.20;38.90
4354;DHT22;11018;51.258;6.806;2024-02-26T01:29:52;8.10;38.90
4354;DHT22;11018;51.258;6.806;2024-02-26T01:32:18;8.40;37.80
4354;DHT22;11018;51.258;6.806;2024-02-26T01:34:45;8.50;37.50
4354;DHT22;11018;51.258;6.806;2024-02-26T01:37:10;8.60;37.10
4354;DHT22;11018;51.258;6.806;2024-02-26T01:39:36;8.70;36.50
4354;DHT22;11018;51.258;6.806;2024-02-26T01:42:02;8.70;36.70
4354;DHT22;11018;51.258;6.806;2024-02-26T01:44:27;8.80;36.50
4354;DHT22;11018;51.258;6.806;2024-02-26T01:46:54;8.70;37.40
4354;DHT22;11018;51.258;6.806;2024-02-26T01:49:19;8.60;38.20
4354;DHT22;11018;51.258;6.806;2024-02-26T01:51:45;8.60;38.90
4354;DHT22;11018;51.258;6.806;2024-02-26T01:54:11;8.60;39.20
4354;DHT22;11018;51.258;6.806;2024-02-26T01:56:39;8.50;40.50
4354;DHT22;11018;51.258;6.806;2024-02-26T01:59:05;8.40;40.50
4354;DHT22;11018;51.258;6.806;2024-02-26T02:01:32;8.40;41.40
4354;DHT22;11018;51.258;6.806;2024-02-26T02:03:59;8.50;41.60
4354;DHT22;11018;51.258;6.806;2024-02-26T02:06:26;8.50;41.50
4354;DHT22;11018;51.258;6.806;2024-02-26T02:08:54;8.50;41.30
4354;DHT22;11018;51.258;6.806;2024-02-26T02:11:20;8.40;42.40
4354;DHT22;11018;51.258;6.806;2024-02-26T02:13:45;8.40;43.20
4354;DHT22;11018;51.258;6.806;2024-02-26T02:16:11;8.30;44.20
4354;DHT22;11018;51.258;6.806;2024-02-26T02:18:37;8.20;44.60
4354;DHT22;11018;51.258;6.806;2024-02-26T02:21:03;8.20;45.80
4354;DHT22;11018;51.258;6.806;2024-02-26T02:23:29;8.20;45.90
4354;DHT22;11018;51.258;6.806;2024-02-26T02:25:56;8.00;47.50
4354;DHT22;11018;51.258;6.806;2024-02-26T02:28:23;8.10;47.70
4354;DHT22;11018;51.258;6.806;2024-02-26T02:30:51;8.00;48.80
4354;DHT22;11018;51.258;6.806;2024-02-26T02:33:16;7.90;49.90
4354;DHT22;11018;51.258;6.806;2024-02-26T02:35:42;7.90;50.60
4354;DHT22;11018;51.258;6.806;2024-02-26T02:38:08;7.90;50.30
4354;DHT22;11018;51.258;6.806;2024-02-26T02:40:34;7.90;51.60
4354;DHT22;11018;51.258;6.806;2024-02-26T02:42:59;7.70;53.40
4354;DHT22;11018;51.258;6.806;2024-02-26T02:45:27;7.70;54.60
4354;DHT22;11018;51.258;6.806;2024-02-26T02:47:53;7.60;55.50
4354;DHT22;11018;51.258;6.806;2024-02-26T02:50:18;7.70;55.80
4354;DHT22;11018;51.258;6.806;2024-02-26T02:52:44;7.50;56.80
4354;DHT22;11018;51.258;6.806;2024-02-26T02:55:10;7.50;58.00
4354;DHT22;11018;51.258;6.806;2024-02-26T02:57:35;7.50;58.60
4354;DHT22;11018;51.258;6.806;2024-02-26T03:00:07;7.50;58.20
4354;DHT22;11018;51.258;6.806;2024-02-26T03:02:33;7.50;58.60
4354;DHT22;11018;51.258;6.806;2024-02-26T03:05:01;7.50;58.90
4354;DHT22;11018;51.258;6.806;2024-02-26T03:07:27;7.40;59.80
4354;DHT22;11018;51.258;6.806;2024-02-26T03:09:53;7.40;59.60
4354;DHT22;11018;51.258;6.806;2024-02-26T03:12:18;7.40;59.60
4354;DHT22;11018;51.258;6.806;2024-02-26T03:14:44;7.40;60.30
4354;DHT22;11018;51.258;6.806;2024-02-26T03:17:09;7.40;60.50
4354;DHT22;11018;51.258;6.806;2024-02-26T03:19:35;7.40;59.80
4354;DHT22;11018;51.258;6.806;2024-02-26T03:22:00;7.30;60.80
4354;DHT22;11018;51.258;6.806;2024-02-26T03:24:26;7.30;61.30
4354;DHT22;11018;51.258;6.806;2024-02-26T03:26:51;7.30;61.20
4354;DHT22;11018;51.258;6.806;2024-02-26T03:29:17;7.30;63.30
4354;DHT22;11018;51.258;6.806;2024-02-26T03:31:43;7.30;62.50
4354;DHT22;11018;51.258;6.806;2024-02-26T03:34:08;7.30;63.60
4354;DHT22;11018;51.258;6.806;2024-02-26T03:36:34;7.30;62.50
4354;DHT22;11018;51.258;6.806;2024-02-26T03:38:59;7.30;62.20
4354;DHT22;11018;51.258;6.806;2024-02-26T03:41:25;7.30;62.80
4354;DHT22;11018;51.258;6.806;2024-02-26T03:43:51;7.50;63.20
4354;DHT22;11018;51.258;6.806;2024-02-26T03:46:17;7.30;62.20
4354;DHT22;11018;51.258;6.806;2024-02-26T03:48:42;7.20;62.80
4354;DHT22;11018;51.258;6.806;2024-02-26T03:51:09;7.20;62.60
4354;DHT22;11018;51.258;6.806;2024-02-26T03:53:35;7.10;62.80
4354;DHT22;11018;51.258;6.806;2024-02-26T03:56:05;7.10;62.30
4354;DHT22;11018;51.258;6.806;2024-02-26T03:58:31;7.10;63.20
4354;DHT22;11018;51.258;6.806;2024-02-26T04:00:56;7.10;62.40
4354;DHT22;11018;51.258;6.806;2024-02-26T04:03:22;7.00;63.30
4354;DHT22;11018;51.258;6.806;2024-02-26T04:05:47;7.00;62.40
4354;DHT22;11018;51.258;6.806;2024-02-26T04:08:13;8.80;63.90
4354;DHT22;11018;51.258;6.806;2024-02-26T04:10:39;7.00;62.60
4354;DHT22;11018;51.258;6.806;2024-02-26T04:13:05;7.00;62.10
4354;DHT22;11018;51.258;6.806;2024-02-26T04:15:31;7.00;62.10
4354;DHT22;11018;51.258;6.806;2024-02-26T04:17:57;7.00;61.90
4354;DHT22;11018;51.258;6.806;2024-02-26T04:20:23;7.00;62.30
4354;DHT22;11018;51.258;6.806;2024-02-26T04:22:48;7.00;62.10
4354;DHT22;11018;51.258;6.806;2024-02-26T04:25:14;6.90;63.40
4354;DHT22;11018;51.258;6.806;2024-02-26T04:27:40;6.90;63.30
4354;DHT22;11018;51.258;6.806;2024-02-26T04:30:06;6.90;63.40
4354;DHT22;11018;51.258;6.806;2024-02-26T04:32:32;6.90;63.80
4354;DHT22;11018;51.258;6.806;2024-02-26T04:35:00;6.90;64.30
4354;DHT22;11018;51.258;6.806;2024-02-26T04:37:25;6.80;64.30
4354;DHT22;11018;51.258;6.806;2024-02-26T04:39:57;6.80;65.00
4354;DHT22;11018;51.258;6.806;2024-02-26T04:42:23;6.80;65.10
4354;DHT22;11018;51.258;6.806;2024-02-26T04:44:48;6.80;65.30
4354;DHT22;11018;51.258;6.806;2024-02-26T04:47:14;6.80;65.60
4354;DHT22;11018;51.258;6.806;2024-02-26T04:49:40;6.80;65.60
4354;DHT22;11018;51.258;6.806;2024-02-26T04:52:05;6.70;66.70
4354;DHT22;11018;51.258;6.806;2024-02-26T04:54:31;6.70;64.90
4354;DHT22;11018;51.258;6.806;2024-02-26T04:56:56;6.80;65.70
4354;DHT22;11018;51.258;6.806;2024-02-26T04:59:22;6.70;66.00
4354;DHT22;11018;51.258;6.806;2024-02-26T05:01:47;6.70;66.90
4354;DHT22;11018;51.258;6.806;2024-02-26T05:04:13;6.70;66.70
4354;DHT22;11018;51.258;6.806;2024-02-26T05:06:38;6.70;67.00
4354;DHT22;11018;51.258;6.806;2024-02-26T05:09:04;6.70;67.20
4354;DHT22;11018;51.258;6.806;2024-02-26T05:11:29;6.60;68.60
4354;DHT22;11018;51.258;6.806;2024-02-26T05:13:55;6.70;68.50
4354;DHT22;11018;51.258;6.806;2024-02-26T05:16:20;6.60;68.80
4354;DHT22;11018;51.258;6.806;2024-02-26T05:18:49;6.60;68.90
4354;DHT22;11018;51.258;6.806;2024-02-26T05:21:15;6.60;69.60
4354;DHT22;11018;51.258;6.806;2024-02-26T05:23:41;6.70;69.10
4354;DHT22;11018;51.258;6.806;2024-02-26T05:26:09;6.70;68.90
4354;DHT22;11018;51.258;6.806;2024-02-26T05:28:34;6.70;68.40
4354;DHT22;11018;51.258;6.806;2024-02-26T05:31:00;6.70;69.10
4354;DHT22;11018;51.258;6.806;2024-02-26T05:33:26;6.70;69.30
4354;DHT22;11018;51.258;6.806;2024-02-26T05:35:51;6.70;69.20
4354;DHT22;11018;51.258;6.806;2024-02-26T05:38:17;6.70;70.10
4354;DHT22;11018;51.258;6.806;2024-02-26T05:40:42;6.60;70.60
4354;DHT22;11018;51.258;6.806;2024-02-26T05:43:08;6.60;71.30
4354;DHT22;11018;51.258;6.806;2024-02-26T05:45:33;6.60;71.20
4354;DHT22;11018;51.258;6.806;2024-02-26T05:47:59;6.60;71.30
4354;DHT22;11018;51.258;6.806;2024-02-26T05:50:24;6.60;71.90
4354;DHT22;11018;51.258;6.806;2024-02-26T05:52:50;6.60;71.80
4354;DHT22;11018;51.258;6.806;2024-02-26T05:55:16;6.60;71.20
4354;DHT22;11018;51.258;6.806;2024-02-26T05:57:42;6.60;72.30
4354;DHT22;11018;51.258;6.806;2024-02-26T06:00:07;6.60;72.20
4354;DHT22;11018;51.258;6.806;2024-02-26T06:02:33;6.60;72.70
4354;DHT22;11018;51.258;6.806;2024-02-26T06:04:59;6.60;72.50
4354;DHT22;11018;51.258;6.806;2024-02-26T06:07:24;6.60;73.50
4354;DHT22;11018;51.258;6.806;2024-02-26T06:09:50;6.70;73.60
4354;DHT22;11018;51.258;6.806;2024-02-26T06:12:15;6.70;75.20
4354;DHT22;11018;51.258;6.806;2024-02-26T06:14:44;6.70;74.30
4354;DHT22;11018;51.258;6.806;2024-02-26T06:17:09;6.60;72.20
4354;DHT22;11018;51.258;6.806;2024-02-26T06:19:35;6.60;72.20
4354;DHT22;11018;51.258;6.806;2024-02-26T06:22:00;6.60;72.50
4354;DHT22;11018;51.258;6.806;2024-02-26T06:24:26;6.60;72.30
4354;DHT22;11018;51.258;6.806;2024-02-26T06:26:51;6.60;72.10
4354;DHT22;11018;51.258;6.806;2024-02-26T06:29:17;6.50;73.20
4354;DHT22;11018;51.258;6.806;2024-02-26T06:31:43;6.60;73.90
4354;DHT22;11018;51.258;6.806;2024-02-26T06:34:09;6.60;74.20
4354;DHT22;11018;51.258;6.806;2024-02-26T06:36:34;6.60;74.80
4354;DHT22;11018;51.258;6.806;2024-02-26T06:39:00;6.60;76.70
4354;DHT22;11018;51.258;6.806;2024-02-26T06:41:26;6.70;76.90
4354;DHT22;11018;51.258;6.806;2024-02-26T06:43:53;6.60;75.70
4354;DHT22;11018;51.258;6.806;2024-02-26T06:46:19;6.60;73.10
4354;DHT22;11018;51.258;6.806;2024-02-26T06:48:44;6.60;75.30
4354;DHT22;11018;51.258;6.806;2024-02-26T06:51:10;6.60;75.20
4354;DHT22;11018;51.258;6.806;2024-02-26T06:53:35;6.60;75.50
4354;DHT22;11018;51.258;6.806;2024-02-26T06:56:01;6.60;77.30
4354;DHT22;11018;51.258;6.806;2024-02-26T06:58:26;6.60;77.90
4354;DHT22;11018;51.258;6.806;2024-02-26T07:00:52;6.60;74.80
4354;DHT22;11018;51.258;6.806;2024-02-26T07:03:17;6.60;75.30
4354;DHT22;11018;51.258;6.806;2024-02-26T07:05:43;6.70;76.10
4354;DHT22;11018;51.258;6.806;2024-02-26T07:08:10;6.70;75.90
4354;DHT22;11018;51.258;6.806;2024-02-26T07:10:35;6.60;77.50
4354;DHT22;11018;51.258;6.806;2024-02-26T07:13:01;6.60;77.20
4354;DHT22;11018;51.258;6.806;2024-02-26T07:15:27;6.60;78.20
4354;DHT22;11018;51.258;6.806;2024-02-26T07:17:52;6.70;77.10
4354;DHT22;11018;51.258;6.806;2024-02-26T07:20:18;6.70;75.20
4354;DHT22;11018;51.258;6.806;2024-02-26T07:22:43;6.70;75.50
4354;DHT22;11018;51.258;6.806;2024-02-26T07:25:09;6.60;77.60
4354;DHT22;11018;51.258;6.806;2024-02-26T07:27:39;6.60;79.90
4354;DHT22;11018;51.258;6.806;2024-02-26T07:30:06;6.70;79.60
4354;DHT22;11018;51.258;6.806;2024-02-26T07:32:32;6.90;76.70
4354;DHT22;11018;51.258;6.806;2024-02-26T07:34:57;6.90;74.40
4354;DHT22;11018;51.258;6.806;2024-02-26T07:37:23;6.90;75.00
4354;DHT22;11018;51.258;6.806;2024-02-26T07:39:48;6.90;75.80
4354;DHT22;11018;51.258;6.806;2024-02-26T07:42:14;6.90;76.60
4354;DHT22;11018;51.258;6.806;2024-02-26T07:44:39;6.90;77.30
4354;DHT22;11018;51.258;6.806;2024-02-26T07:47:09;7.00;77.50
4354;DHT22;11018;51.258;6.806;2024-02-26T07:49:34;7.10;75.80
4354;DHT22;11018;51.258;6.806;2024-02-26T07:52:00;7.20;72.50
4354;DHT22;11018;51.258;6.806;2024-02-26T07:54:25;7.10;73.50
4354;DHT22;11018;51.258;6.806;2024-02-26T07:56:51;7.10;72.20
4354;DHT22;11018;51.258;6.806;2024-02-26T07:59:24;7.00;76.60
4354;DHT22;11018;51.258;6.806;2024-02-26T08:01:52;7.00;76.60
4354;DHT22;11018;51.258;6.806;2024-02-26T08:04:18;7.20;74.80
4354;DHT22;11018;51.258;6.806;2024-02-26T08:06:43;7.20;74.40
4354;DHT22;11018;51.258;6.806;2024-02-26T08:09:09;7.30;75.00
4354;DHT22;11018;51.258;6.806;2024-02-26T08:11:35;7.20;76.20
4354;DHT22;11018;51.258;6.806;2024-02-26T08:14:00;7.20;75.70
4354;DHT22;11018;51.258;6.806;2024-02-26T08:16:26;7.20;76.40
4354;DHT22;11018;51.258;6.806;2024-02-26T08:18:52;7.20;77.30
4354;DHT22;11018;51.258;6.806;2024-02-26T08:21:17;7.40;75.80
4354;DHT22;11018;51.258;6.806;2024-02-26T08:23:44;7.40;75.80
4354;DHT22;11018;51.258;6.806;2024-02-26T08:26:09;7.40;75.60
4354;DHT22;11018;51.258;6.806;2024-02-26T08:28:37;7.50;73.40
4354;DHT22;11018;51.258;6.806;2024-02-26T08:31:03;7.50;73.80
4354;DHT22;11018;51.258;6.806;2024-02-26T08:33:28;7.50;71.60
4354;DHT22;11018;51.258;6.806;2024-02-26T08:35:54;7.50;72.00
4354;DHT22;11018;51.258;6.806;2024-02-26T08:38:20;7.70;71.20
4354;DHT22;11018;51.258;6.806;2024-02-26T08:40:45;7.70;70.50
4354;DHT22;11018;51.258;6.806;2024-02-26T08:43:11;7.80;70.00
4354;DHT22;11018;51.258;6.806;2024-02-26T08:45:36;7.80;69.80
4354;DHT22;11018;51.258;6.806;2024-02-26T08:48:02;7.80;70.20
4354;DHT22;11018;51.258;6.806;2024-02-26T08:50:28;7.80;69.20
4354;DHT22;11018;51.258;6.806;2024-02-26T08:52:53;7.90;67.40
4354;DHT22;11018;51.258;6.806;2024-02-26T08:55:19;7.80;69.00
4354;DHT22;11018;51.258;6.806;2024-02-26T08:57:45;7.80;71.20
4354;DHT22;11018;51.258;6.806;2024-02-26T09:00:10;7.90;69.20
4354;DHT22;11018;51.258;6.806;2024-02-26T09:02:38;7.90;68.40
4354;DHT22;11018;51.258;6.806;2024-02-26T09:05:09;7.80;68.50
4354;DHT22;11018;51.258;6.806;2024-02-26T09:07:35;7.80;68.30
4354;DHT22;11018;51.258;6.806;2024-02-26T09:10:01;7.70;71.00
4354;DHT22;11018;51.258;6.806;2024-02-26T09:12:27;7.80;69.20
4354;DHT22;11018;51.258;6.806;2024-02-26T09:14:54;7.80;69.20
4354;DHT22;11018;51.258;6.806;2024-02-26T09:17:21;7.70;70.00
4354;DHT22;11018;51.258;6.806;2024-02-26T09:19:47;7.80;68.70
4354;DHT22;11018;51.258;6.806;2024-02-26T09:22:12;7.80;67.50
4354;DHT22;11018;51.258;6.806;2024-02-26T09:24:38;7.80;68.50
4354;DHT22;11018;51.258;6.806;2024-02-26T09:27:04;7.80;67.80
4354;DHT22;11018;51.258;6.806;2024-02-26T09:29:29;7.70;69.30
4354;DHT22;11018;51.258;6.806;2024-02-26T09:31:55;7.70;70.00
4354;DHT22;11018;51.258;6.806;2024-02-26T09:34:20;7.60;70.70
4354;DHT22;11018;51.258;6.806;2024-02-26T09:36:46;7.70;71.90
4354;DHT22;11018;51.258;6.806;2024-02-26T09:39:12;7.60;72.50
4354;DHT22;11018;51.258;6.806;2024-02-26T09:41:39;7.70;71.20
4354;DHT22;11018;51.258;6.806;2024-02-26T09:44:05;7.80;71.30
4354;DHT22;11018;51.258;6.806;2024-02-26T09:46:31;7.80;71.00
4354;DHT22;11018;51.258;6.806;2024-02-26T09:48:57;7.80;70.30
4354;DHT22;11018;51.258;6.806;2024-02-26T09:51:23;7.90;69.90
4354;DHT22;11018;51.258;6.806;2024-02-26T09:53:52;7.90;69.40
4354;DHT22;11018;51.258;6.806;2024-02-26T09:56:18;8.00;69.30
4354;DHT22;11018;51.258;6.806;2024-02-26T09:58:44;8.00;67.70
4354;DHT22;11018;51.258;6.806;2024-02-26T10:01:18;8.00;68.60
4354;DHT22;11018;51.258;6.806;2024-02-26T10:03:50;8.00;67.90
4354;DHT22;11018;51.258;6.806;2024-02-26T10:06:17;8.00;68.10
4354;DHT22;11018;51.258;6.806;2024-02-26T10:08:44;8.10;68.00
4354;DHT22;11018;51.258;6.806;2024-02-26T10:11:10;8.10;68.50
4354;DHT22;11018;51.258;6.806;2024-02-26T10:13:36;8.40;68.40
4354;DHT22;11018;51.258;6.806;2024-02-26T10:16:02;8.10;67.00
4354;DHT22;11018;51.258;6.806;2024-02-26T10:18:50;8.00;67.50
4354;DHT22;11018;51.258;6.806;2024-02-26T10:21:25;8.10;69.00
4354;DHT22;11018;51.258;6.806;2024-02-26T10:23:50;8.20;69.50
4354;DHT22;11018;51.258;6.806;2024-02-26T10:26:16;8.30;68.70
4354;DHT22;11018;51.258;6.806;2024-02-26T10:28:43;8.40;65.40
4354;DHT22;11018;51.258;6.806;2024-02-26T10:31:09;8.40;65.60
4354;DHT22;11018;51.258;6.806;2024-02-26T10:33:36;8.40;64.10
4354;DHT22;11018;51.258;6.806;2024-02-26T10:36:06;8.40;64.80
4354;DHT22;11018;51.258;6.806;2024-02-26T10:38:34;8.40;64.80
4354;DHT22;11018;51.258;6.806;2024-02-26T10:41:01;8.60;64.80
4354;DHT22;11018;51.258;6.806;2024-02-26T10:43:27;8.60;63.50
4354;DHT22;11018;51.258;6.806;2024-02-26T10:45:55;8.70;63.40
4354;DHT22;11018;51.258;6.806;2024-02-26T10:48:21;8.70;65.20
4354;DHT22;11018;51.258;6.806;2024-02-26T10:50:47;8.90;63.20
4354;DHT22;11018;51.258;6.806;2024-02-26T10:53:17;8.90;63.30
4354;DHT22;11018;51.258;6.806;2024-02-26T10:55:49;9.00;61.70
4354;DHT22;11018;51.258;6.806;2024-02-26T10:58:18;8.90;61.60
4354;DHT22;11018;51.258;6.806;2024-02-26T11:00:45;8.80;62.00
4354;DHT22;11018;51.258;6.806;2024-02-26T11:03:13;8.70;61.30
4354;DHT22;11018;51.258;6.806;2024-02-26T11:05:41;8.60;64.40
4354;DHT22;11018;51.258;6.806;2024-02-26T11:08:08;8.50;66.30
4354;DHT22;11018;51.258;6.806;2024-02-26T11:10:36;8.50;68.30
4354;DHT22;11018;51.258;6.806;2024-02-26T11:13:05;8.50;67.10
4354;DHT22;11018;51.258;6.806;2024-02-26T11:15:32;8.50;68.30
4354;DHT22;11018;51.258;6.806;2024-02-26T11:17:59;8.50;68.60
4354;DHT22;11018;51.258;6.806;2024-02-26T11:20:28;8.60;67.00
4354;DHT22;11018;51.258;6.806;2024-02-26T11:22:54;8.60;67.20
4354;DHT22;11018;51.258;6.806;2024-02-26T11:25:19;8.60;66.40
4354;DHT22;11018;51.258;6.806;2024-02-26T11:28:00;8.60;67.70
4354;DHT22;11018;51.258;6.806;2024-02-26T11:30:30;8.90;66.20
4354;DHT22;11018;51.258;6.806;2024-02-26T11:32:57;9.10;65.30
4354;DHT22;11018;51.258;6.806;2024-02-26T11:35:23;9.20;61.20
4354;DHT22;11018;51.258;6.806;2024-02-26T11:37:56;9.20;63.30
4354;DHT22;11018;51.258;6.806;2024-02-26T11:40:24;9.30;61.30
4354;DHT22;11018;51.258;6.806;2024-02-26T11:42:51;9.30;61.10
4354;DHT22;11018;51.258;6.806;2024-02-26T11:48:14;9.40;60.20
4354;DHT22;11018;51.258;6.806;2024-02-26T11:50:47;9.40;59.60
4354;DHT22;11018;51.258;6.806;2024-02-26T11:53:28;9.40;59.30
4354;DHT22;11018;51.258;6.806;2024-02-26T11:58:47;9.10;59.30
4354;DHT22;11018;51.258;6.806;2024-02-26T12:04:01;8.80;58.70
4354;DHT22;11018;51.258;6.806;2024-02-26T12:06:27;8.70;60.30
4354;DHT22;11018;51.258;6.806;2024-02-26T12:08:54;8.70;60.60
4354;DHT22;11018;51.258;6.806;2024-02-26T12:11:20;8.70;62.20
4354;DHT22;11018;51.258;6.806;2024-02-26T12:13:49;8.70;62.60
4354;DHT22;11018;51.258;6.806;2024-02-26T12:16:35;8.70;61.70
4354;DHT22;11018;51.258;6.806;2024-02-26T12:19:05;8.70;62.30
4354;DHT22;11018;51.258;6.806;2024-02-26T12:21:36;8.70;61.50
4354;DHT22;11018;51.258;6.806;2024-02-26T12:24:12;8.70;62.70
4354;DHT22;11018;51.258;6.806;2024-02-26T12:26:39;8.80;63.30
4354;DHT22;11018;51.258;6.806;2024-02-26T12:29:05;9.00;61.80
4354;DHT22;11018;51.258;6.806;2024-02-26T12:31:32;9.20;60.00
4354;DHT22;11018;51.258;6.806;2024-02-26T12:33:59;9.30;60.20
4354;DHT22;11018;51.258;6.806;2024-02-26T12:36:25;9.40;58.50
4354;DHT22;11018;51.258;6.806;2024-02-26T12:38:51;9.50;59.90
4354;DHT22;11018;51.258;6.806;2024-02-26T12:41:17;9.60;58.40
4354;DHT22;11018;51.258;6.806;2024-02-26T12:43:42;9.60;58.40
4354;DHT22;11018;51.258;6.806;2024-02-26T12:46:08;9.60;58.60
4354;DHT22;11018;51.258;6.806;2024-02-26T12:48:34;9.60;57.20
4354;DHT22;11018;51.258;6.806;2024-02-26T12:51:00;9.60;58.70
4354;DHT22;11018;51.258;6.806;2024-02-26T12:53:26;9.60;57.50
4354;DHT22;11018;51.258;6.806;2024-02-26T12:55:53;9.60;57.80
4354;DHT22;11018;51.258;6.806;2024-02-26T12:58:20;9.70;59.10
4354;DHT22;11018;51.258;6.806;2024-02-26T13:00:53;9.70;58.50
4354;DHT22;11018;51.258;6.806;2024-02-26T13:03:19;9.60;58.00
4354;DHT22;11018;51.258;6.806;2024-02-26T13:05:46;9.60;59.90
4354;DHT22;11018;51.258;6.806;2024-02-26T13:08:21;9.60;59.40
4354;DHT22;11018;51.258;6.806;2024-02-26T13:10:47;9.40;59.40
4354;DHT22;11018;51.258;6.806;2024-02-26T13:13:16;9.30;61.10
4354;DHT22;11018;51.258;6.806;2024-02-26T13:15:45;9.20;61.30
4354;DHT22;11018;51.258;6.806;2024-02-26T13:18:13;9.10;63.60
4354;DHT22;11018;51.258;6.806;2024-02-26T13:20:39;9.10;67.10
4354;DHT22;11018;51.258;6.806;2024-02-26T13:23:11;9.10;65.20
4354;DHT22;11018;51.258;6.806;2024-02-26T13:25:37;9.10;63.30
4354;DHT22;11018;51.258;6.806;2024-02-26T13:28:22;9.00;64.50
4354;DHT22;11018;51.258;6.806;2024-02-26T13:30:54;9.10;64.80
4354;DHT22;11018;51.258;6.806;2024-02-26T13:33:27;9.20;61.90
4354;DHT22;11018;51.258;6.806;2024-02-26T13:35:57;9.10;60.80
4354;DHT22;11018;51.258;6.806;2024-02-26T13:38:23;9.20;59.90
4354;DHT22;11018;51.258;6.806;2024-02-26T13:40:52;9.20;62.20
4354;DHT22;11018;51.258;6.806;2024-02-26T13:43:19;9.40;60.00
4354;DHT22;11018;51.258;6.806;2024-02-26T13:45:45;9.40;58.10
4354;DHT22;11018;51.258;6.806;2024-02-26T13:48:11;9.50;58.00
4354;DHT22;11018;51.258;6.806;2024-02-26T13:50:41;9.40;57.70
4354;DHT22;11018;51.258;6.806;2024-02-26T13:53:08;9.40;56.40
4354;DHT22;11018;51.258;6.806;2024-02-26T13:55:34;9.50;55.50
4354;DHT22;11018;51.258;6.806;2024-02-26T13:58:00;9.50;54.00
4354;DHT22;11018;51.258;6.806;2024-02-26T14:00:27;9.50;54.70
4354;DHT22;11018;51.258;6.806;2024-02-26T14:02:54;9.70;55.00
4354;DHT22;11018;51.258;6.806;2024-02-26T14:05:20;9.70;52.10
4354;DHT22;11018;51.258;6.806;2024-02-26T14:07:45;9.80;52.10
4354;DHT22;11018;51.258;6.806;2024-02-26T14:10:12;9.90;51.60
4354;DHT22;11018;51.258;6.806;2024-02-26T14:12:38;10.00;51.70
4354;DHT22;11018;51.258;6.806;2024-02-26T14:15:06;10.00;51.00
4354;DHT22;11018;51.258;6.806;2024-02-26T14:17:32;10.00;49.70
4354;DHT22;11018;51.258;6.806;2024-02-26T14:19:58;10.20;51.40
4354;DHT22;11018;51.258;6.806;2024-02-26T14:22:23;10.30;51.20
4354;DHT22;11018;51.258;6.806;2024-02-26T14:24:52;10.40;46.60
4354;DHT22;11018;51.258;6.806;2024-02-26T14:27:18;10.50;45.90
4354;DHT22;11018;51.258;6.806;2024-02-26T14:29:46;10.40;46.00
4354;DHT22;11018;51.258;6.806;2024-02-26T14:32:11;10.30;46.30
4354;DHT22;11018;51.258;6.806;2024-02-26T14:34:37;10.10;45.90
4354;DHT22;11018;51.258;6.806;2024-02-26T14:37:03;10.20;47.20
4354;DHT22;11018;51.258;6.806;2024-02-26T14:39:30;10.30;46.80
4354;DHT22;11018;51.258;6.806;2024-02-26T14:41:57;10.30;46.30
4354;DHT22;11018;51.258;6.806;2024-02-26T14:44:23;10.30;46.50
4354;DHT22;11018;51.258;6.806;2024-02-26T14:46:49;10.20;46.90
4354;DHT22;11018;51.258;6.806;2024-02-26T14:49:15;10.30;46.30
4354;DHT22;11018;51.258;6.806;2024-02-26T14:51:40;10.10;44.60
4354;DHT22;11018;51.258;6.806;2024-02-26T14:54:06;10.00;46.10
4354;DHT22;11018;51.258;6.806;2024-02-26T14:56:32;10.00;47.00
4354;DHT22;11018;51.258;6.806;2024-02-26T14:58:57;10.00;45.40
4354;DHT22;11018;51.258;6.806;2024-02-26T15:01:23;9.80;45.60
4354;DHT22;11018;51.258;6.806;2024-02-26T15:03:52;9.70;46.70
4354;DHT22;11018;51.258;6.806;2024-02-26T15:06:17;9.60;47.30
4354;DHT22;11018;51.258;6.806;2024-02-26T15:08:43;9.50;47.00
4354;DHT22;11018;51.258;6.806;2024-02-26T15:11:08;9.40;47.90
4354;DHT22;11018;51.258;6.806;2024-02-26T15:13:35;9.40;47.80
4354;DHT22;11018;51.258;6.806;2024-02-26T15:16:01;9.40;47.20
4354;DHT22;11018;51.258;6.806;2024-02-26T15:18:26;9.30;47.70
4354;DHT22;11018;51.258;6.806;2024-02-26T15:20:52;9.20;48.40
4354;DHT22;11018;51.258;6.806;2024-02-26T15:23:18;9.10;48.80
4354;DHT22;11018;51.258;6.806;2024-02-26T15:25:44;9.10;50.30
4354;DHT22;11018;51.258;6.806;2024-02-26T15:28:10;9.10;50.50
4354;DHT22;11018;51.258;6.806;2024-02-26T15:30:37;9.10;50.10
4354;DHT22;11018;51.258;6.806;2024-02-26T15:33:02;9.10;49.80
4354;DHT22;11018;51.258;6.806;2024-02-26T15:35:28;8.90;50.50
4354;DHT22;11018;51.258;6.806;2024-02-26T15:37:54;8.90;50.10
4354;DHT22;11018;51.258;6.806;2024-02-26T15:40:19;8.90;51.20
4354;DHT22;11018;51.258;6.806;2024-02-26T15:42:47;8.90;49.90
4354;DHT22;11018;51.258;6.806;2024-02-26T15:45:12;8.90;49.90
4354;DHT22;11018;51.258;6.806;2024-02-26T15:47:38;8.80;49.90
4354;DHT22;11018;51.258;6.806;2024-02-26T15:50:05;8.70;49.20
4354;DHT22;11018;51.258;6.806;2024-02-26T15:52:30;8.70;49.20
4354;DHT22;11018;51.258;6.806;2024-02-26T15:54:56;8.70;50.00
4354;DHT22;11018;51.258;6.806;2024-02-26T15:57:22;8.70;48.50
4354;DHT22;11018;51.258;6.806;2024-02-26T15:59:48;8.60;50.50
4354;DHT22;11018;51.258;6.806;2024-02-26T16:02:15;8.70;49.90
4354;DHT22;11018;51.258;6.806;2024-02-26T16:04:41;8.70;50.20